Terminal Aerodrome Forecast
Issued by NWS

Home | Current Version | Previous Version | Text Only | Print | Product List | Glossary On
Versions: 1 2 3 4 5 6 7 8 9 10 11 12 13 14 15 16 17 18 19 20 21 22
281
FTUS43 KJKL 102013 AAA
TAFSJS
TAF AMD
KSJS 102013Z 1020/1118 30008G17KT P6SM VCSH SCT020 BKN035
      TEMPO 1020/1022 VRB05KT 3SM -SN BKN015
     FM102200 27007KT P6SM VCSH SCT025 BKN035
     FM110200 27009KT P6SM BKN025
     FM111300 VRB05KT P6SM SCT030=

USA.gov is the U.S. government's official web portal to all federal, state and local government web resources and services.